createdAt,value
2023-06-15T00:01:07.445Z,16.23
2023-06-15T00:03:44.845Z,16.42
2023-06-15T00:06:12.998Z,15.80
2023-06-15T00:08:41.624Z,16.98
2023-06-15T00:11:09.744Z,17.17
2023-06-15T00:13:37.433Z,16.92
2023-06-15T00:16:05.697Z,17.75
2023-06-15T00:18:34.655Z,18.02
2023-06-15T00:21:03.997Z,18.80
2023-06-15T00:23:33.421Z,17.45
2023-06-15T00:26:01.683Z,18.00
2023-06-15T00:28:29.582Z,19.15
2023-06-15T00:30:57.455Z,18.80
2023-06-15T00:33:25.049Z,18.23
2023-06-15T00:35:52.998Z,18.90
2023-06-15T00:38:20.762Z,18.50
2023-06-15T00:40:49.343Z,18.80
2023-06-15T00:43:18.414Z,19.70
2023-06-15T00:45:46.464Z,18.63
2023-06-15T00:48:16.193Z,18.42
2023-06-15T00:50:44.560Z,19.27
2023-06-15T00:53:12.641Z,20.35
2023-06-15T00:55:42.956Z,21.08
2023-06-15T00:58:11.356Z,19.48
2023-06-15T01:00:39.486Z,20.13
2023-06-15T01:03:07.922Z,18.92
2023-06-15T01:05:36.536Z,19.45
2023-06-15T01:08:08.360Z,18.98
2023-06-15T01:10:36.948Z,19.83
2023-06-15T01:13:06.392Z,19.75
2023-06-15T01:15:34.436Z,19.95
2023-06-15T01:18:04.772Z,20.17
2023-06-15T01:20:54.986Z,19.38
2023-06-15T01:23:37.891Z,18.92
2023-06-15T01:26:08.153Z,19.37
2023-06-15T01:28:46.260Z,20.10
2023-06-15T01:31:14.709Z,20.80
2023-06-15T01:33:49.665Z,19.55
2023-06-15T01:36:19.038Z,19.92
2023-06-15T01:38:49.262Z,19.83
2023-06-15T01:41:19.620Z,19.75
2023-06-15T01:43:47.468Z,19.08
2023-06-15T01:46:19.164Z,19.65
2023-06-15T01:48:46.877Z,19.45
2023-06-15T01:51:16.547Z,19.48
2023-06-15T01:53:45.356Z,19.35
2023-06-15T01:56:15.160Z,18.80
2023-06-15T01:58:43.100Z,19.60
2023-06-15T02:01:11.190Z,20.23
2023-06-15T02:03:38.801Z,20.42
2023-06-15T02:06:12.413Z,20.08
2023-06-15T02:08:40.120Z,20.15
2023-06-15T02:11:08.028Z,18.70
2023-06-15T02:13:35.864Z,19.30
2023-06-15T02:16:04.983Z,19.45
2023-06-15T02:18:32.667Z,18.50
2023-06-15T02:21:00.923Z,18.90
2023-06-15T02:23:28.603Z,20.20
2023-06-15T02:25:57.533Z,20.20
2023-06-15T02:28:25.107Z,23.58
2023-06-15T02:30:53.048Z,21.20
2023-06-15T02:33:20.642Z,21.33
2023-06-15T02:35:48.907Z,21.50
2023-06-15T02:38:17.272Z,21.45
2023-06-15T02:40:45.146Z,21.77
2023-06-15T02:43:12.757Z,22.27
2023-06-15T02:45:41.173Z,21.17
2023-06-15T02:48:09.690Z,21.95
2023-06-15T02:50:38.070Z,21.25
2023-06-15T02:53:20.318Z,20.30
2023-06-15T02:55:53.121Z,20.40
2023-06-15T02:58:21.253Z,20.17
2023-06-15T03:01:09.520Z,21.38
2023-06-15T03:03:45.160Z,20.50
2023-06-15T03:06:15.768Z,20.95
2023-06-15T03:08:44.548Z,19.98
2023-06-15T03:11:21.918Z,21.38
2023-06-15T03:13:49.855Z,22.15
2023-06-15T03:16:18.008Z,21.48
2023-06-15T03:18:49.446Z,22.42
2023-06-15T03:21:19.372Z,23.23
2023-06-15T03:23:48.275Z,23.00
2023-06-15T03:26:17.896Z,21.63
2023-06-15T03:28:46.877Z,23.40
2023-06-15T03:31:18.872Z,21.23
2023-06-15T03:33:47.878Z,22.27
2023-06-15T03:36:19.607Z,21.13
2023-06-15T03:38:47.477Z,20.60
2023-06-15T03:41:15.403Z,20.60
2023-06-15T03:43:43.008Z,20.45
2023-06-15T03:46:10.975Z,18.55
2023-06-15T03:48:38.673Z,18.92
2023-06-15T03:51:07.774Z,19.10
2023-06-15T03:53:36.618Z,20.35
2023-06-15T03:56:04.724Z,21.35
2023-06-15T03:58:33.333Z,20.60
2023-06-15T04:01:02.522Z,21.55
2023-06-15T04:03:30.147Z,22.52
2023-06-15T04:05:59.082Z,21.65
2023-06-15T04:08:27.636Z,20.90
2023-06-15T04:10:58.052Z,21.88
2023-06-15T04:13:26.418Z,21.73
2023-06-15T04:15:54.944Z,21.85
2023-06-15T04:18:26.518Z,20.80
2023-06-15T04:20:54.555Z,20.83
2023-06-15T04:23:22.498Z,21.80
2023-06-15T04:25:52.077Z,21.83
2023-06-15T04:28:21.587Z,20.90
2023-06-15T04:31:06.594Z,20.27
2023-06-15T04:33:35.486Z,21.13
2023-06-15T04:36:04.516Z,21.63
2023-06-15T04:38:32.374Z,20.38
2023-06-15T04:41:01.860Z,21.13
2023-06-15T04:43:29.675Z,21.23
2023-06-15T04:45:57.582Z,21.65
2023-06-15T04:48:29.161Z,22.02
2023-06-15T04:50:57.593Z,21.20
2023-06-15T04:53:25.598Z,22.35
2023-06-15T04:55:54.402Z,21.75
2023-06-15T04:58:22.660Z,22.67
2023-06-15T05:00:51.473Z,24.30
2023-06-15T05:03:20.237Z,24.00
2023-06-15T05:05:48.614Z,23.23
2023-06-15T05:08:16.769Z,20.88
2023-06-15T05:10:46.885Z,19.33
2023-06-15T05:13:19.743Z,19.17
2023-06-15T05:15:47.822Z,18.00
2023-06-15T05:18:17.771Z,17.35
2023-06-15T05:20:46.317Z,18.23
2023-06-15T05:23:14.306Z,17.42
2023-06-15T05:25:44.188Z,18.00
2023-06-15T05:28:11.864Z,15.95
2023-06-15T05:30:42.071Z,16.83
2023-06-15T05:33:11.398Z,16.55
2023-06-15T05:35:39.968Z,15.57
2023-06-15T05:38:07.710Z,16.40
2023-06-15T05:40:39.943Z,15.00
2023-06-15T05:43:07.998Z,15.20
2023-06-15T05:45:40.608Z,12.18
2023-06-15T05:48:09.489Z,12.95
2023-06-15T05:50:38.330Z,12.73
2023-06-15T05:53:06.990Z,14.65
2023-06-15T05:55:34.959Z,13.55
2023-06-15T05:58:03.251Z,14.05
2023-06-15T06:00:32.989Z,11.60
2023-06-15T06:03:02.604Z,11.50
2023-06-15T06:05:39.695Z,10.55
2023-06-15T06:08:08.082Z,11.80
2023-06-15T06:10:36.039Z,11.45
2023-06-15T06:13:17.869Z,12.07
2023-06-15T06:15:46.509Z,13.57
2023-06-15T06:18:15.491Z,12.60
2023-06-15T06:20:43.394Z,11.43
2023-06-15T06:23:11.897Z,12.00
2023-06-15T06:25:39.846Z,12.57
2023-06-15T06:28:09.496Z,12.05
2023-06-15T06:30:39.279Z,11.00
2023-06-15T06:33:07.312Z,10.73
2023-06-15T06:35:35.410Z,11.75
2023-06-15T06:38:03.010Z,9.75
2023-06-15T06:40:31.569Z,9.07
2023-06-15T06:42:59.568Z,11.15
2023-06-15T06:45:30.312Z,9.98
2023-06-15T06:47:58.559Z,11.25
2023-06-15T06:50:26.544Z,9.77
2023-06-15T06:52:54.358Z,10.57
2023-06-15T06:55:22.288Z,10.63
2023-06-15T06:57:49.949Z,10.30
2023-06-15T07:00:18.163Z,9.45
2023-06-15T07:02:45.864Z,10.18
2023-06-15T07:05:14.367Z,10.10
2023-06-15T07:07:42.027Z,10.13
2023-06-15T07:10:10.191Z,10.57
2023-06-15T07:12:37.999Z,10.40
2023-06-15T07:15:06.705Z,10.65
2023-06-15T07:17:34.689Z,9.98
2023-06-15T07:20:02.703Z,10.25
2023-06-15T07:22:30.377Z,9.77
2023-06-15T07:24:58.270Z,11.10
2023-06-15T07:27:25.947Z,9.63
2023-06-15T07:29:53.777Z,9.23
2023-06-15T07:32:21.443Z,9.38
2023-06-15T07:34:49.564Z,9.65
2023-06-15T07:37:17.337Z,8.80
2023-06-15T07:39:45.524Z,9.05
2023-06-15T07:42:13.093Z,9.65
2023-06-15T07:44:41.085Z,9.05
2023-06-15T07:47:09.531Z,9.43
2023-06-15T07:49:45.492Z,7.72
2023-06-15T07:52:15.576Z,8.38
2023-06-15T07:54:43.851Z,8.40
2023-06-15T07:57:11.773Z,7.18
2023-06-15T07:59:39.680Z,7.88
2023-06-15T08:02:07.730Z,6.90
2023-06-15T08:04:36.766Z,6.30
2023-06-15T08:07:04.626Z,6.53
2023-06-15T08:09:32.574Z,6.60
2023-06-15T08:12:01.159Z,6.72
2023-06-15T08:14:29.722Z,6.18
2023-06-15T08:16:57.391Z,5.72
2023-06-15T08:19:25.383Z,5.78
2023-06-15T08:21:53.129Z,6.78
2023-06-15T08:24:21.182Z,6.90
2023-06-15T08:26:49.803Z,6.53
2023-06-15T08:29:23.883Z,6.50
2023-06-15T08:31:52.846Z,7.13
2023-06-15T08:34:20.834Z,11.77
2023-06-15T08:36:48.429Z,14.05
2023-06-15T08:39:16.604Z,5.97
2023-06-15T08:41:48.196Z,6.22
2023-06-15T08:44:19.615Z,5.95
2023-06-15T08:46:48.209Z,5.38
2023-06-15T08:49:16.767Z,5.90
2023-06-15T08:51:46.315Z,6.25
2023-06-15T08:54:14.324Z,5.60
2023-06-15T08:56:42.201Z,6.82
2023-06-15T08:59:10.123Z,5.68
2023-06-15T09:01:41.591Z,6.18
2023-06-15T09:04:10.122Z,5.90
2023-06-15T09:06:37.867Z,5.25
2023-06-15T09:09:06.331Z,8.15
2023-06-15T09:11:47.432Z,5.40
2023-06-15T09:14:15.402Z,5.88
2023-06-15T09:16:43.363Z,5.82
2023-06-15T09:19:12.800Z,5.50
2023-06-15T09:21:54.938Z,5.03
2023-06-15T09:24:25.973Z,4.53
2023-06-15T09:26:53.772Z,5.25
2023-06-15T09:29:21.668Z,4.97
2023-06-15T09:31:49.257Z,5.10
2023-06-15T09:34:17.209Z,5.20
2023-06-15T09:36:48.172Z,5.25
2023-06-15T09:39:21.196Z,4.60
2023-06-15T09:41:57.900Z,4.78
2023-06-15T09:44:27.743Z,4.63
2023-06-15T09:47:02.577Z,5.20
2023-06-15T09:49:32.438Z,5.10
2023-06-15T09:52:02.040Z,5.28
2023-06-15T09:54:30.309Z,4.72
2023-06-15T09:56:58.623Z,8.40
2023-06-15T09:59:26.690Z,4.30
2023-06-15T10:01:57.386Z,5.13
2023-06-15T10:04:30.712Z,5.43
2023-06-15T10:07:02.888Z,5.15
2023-06-15T10:09:46.318Z,5.05
2023-06-15T10:12:19.916Z,4.80
2023-06-15T10:17:33.923Z,5.53
2023-06-15T10:20:17.729Z,5.20
2023-06-15T10:22:58.450Z,5.70
2023-06-15T10:25:31.809Z,5.47
2023-06-15T10:28:04.080Z,5.55
2023-06-15T10:31:03.526Z,5.00
2023-06-15T10:34:01.945Z,5.28
2023-06-15T10:36:32.050Z,5.18
2023-06-15T10:39:17.870Z,5.10
2023-06-15T10:41:46.452Z,5.07
2023-06-15T10:44:17.349Z,5.03
2023-06-15T10:46:45.296Z,4.80
2023-06-15T10:49:14.078Z,5.50
2023-06-15T10:51:51.116Z,4.88
2023-06-15T10:54:23.648Z,5.43
2023-06-15T10:56:54.774Z,5.85
2023-06-15T10:59:43.083Z,5.13
2023-06-15T11:02:30.228Z,4.90
2023-06-15T11:05:12.152Z,5.40
2023-06-15T11:07:42.653Z,5.25
2023-06-15T11:10:15.554Z,9.38
2023-06-15T11:12:45.454Z,4.90
2023-06-15T11:15:15.993Z,5.00
2023-06-15T11:18:01.091Z,4.75
2023-06-15T11:20:41.156Z,5.30
2023-06-15T11:23:11.758Z,4.95
2023-06-15T11:25:47.338Z,5.07
2023-06-15T11:28:31.178Z,4.82
2023-06-15T11:31:05.629Z,5.20
2023-06-15T11:33:37.674Z,5.20
2023-06-15T11:36:10.288Z,5.40
2023-06-15T11:38:38.703Z,4.88
2023-06-15T11:41:08.987Z,5.28
2023-06-15T11:43:43.497Z,4.82
2023-06-15T11:46:15.777Z,5.10
2023-06-15T11:48:48.024Z,4.72
2023-06-15T11:51:21.102Z,4.20
2023-06-15T11:53:49.139Z,4.47
2023-06-15T11:56:18.105Z,4.95
2023-06-15T11:58:48.421Z,5.25
2023-06-15T12:01:17.555Z,5.35
2023-06-15T12:04:03.249Z,5.47
2023-06-15T12:06:33.474Z,5.30
2023-06-15T12:09:02.476Z,5.22
2023-06-15T12:11:30.565Z,5.88
2023-06-15T12:14:12.352Z,4.40
2023-06-15T12:16:40.476Z,4.97
2023-06-15T12:19:11.483Z,5.05
2023-06-15T12:21:41.118Z,5.40
2023-06-15T12:24:19.904Z,5.05
2023-06-15T12:26:54.005Z,5.22
2023-06-15T12:29:23.638Z,4.90
2023-06-15T12:31:53.699Z,4.60
2023-06-15T12:34:27.544Z,4.45
2023-06-15T12:36:56.765Z,4.57
2023-06-15T12:39:28.969Z,4.97
2023-06-15T12:42:03.800Z,5.10
2023-06-15T12:44:35.771Z,4.50
2023-06-15T12:47:03.984Z,4.53
2023-06-15T12:49:32.772Z,4.70
2023-06-15T12:52:00.733Z,4.72
2023-06-15T12:54:28.680Z,4.75
2023-06-15T12:56:56.276Z,4.15
2023-06-15T12:59:24.206Z,4.40
2023-06-15T13:01:52.084Z,4.18
2023-06-15T13:04:20.523Z,5.10
2023-06-15T13:06:48.229Z,4.55
2023-06-15T13:09:16.327Z,3.90
2023-06-15T13:11:44.070Z,4.60
2023-06-15T13:14:11.961Z,3.88
2023-06-15T13:16:39.534Z,3.63
2023-06-15T13:19:08.507Z,4.85
2023-06-15T13:21:36.089Z,4.60
2023-06-15T13:24:04.093Z,4.05
2023-06-15T13:26:31.883Z,3.63
2023-06-15T13:28:59.948Z,3.40
2023-06-15T13:31:28.062Z,3.30
2023-06-15T13:33:56.041Z,11.38
2023-06-15T13:36:23.661Z,5.47
2023-06-15T13:38:51.558Z,2.83
2023-06-15T13:41:19.091Z,2.40
2023-06-15T13:43:48.710Z,2.72
2023-06-15T13:46:18.313Z,2.60
2023-06-15T13:48:46.421Z,2.65
2023-06-15T13:51:14.099Z,2.20
2023-06-15T13:53:54.912Z,2.50
2023-06-15T13:56:34.349Z,2.30
2023-06-15T13:59:16.951Z,2.25
2023-06-15T14:01:59.482Z,2.20
2023-06-15T14:04:53.219Z,1.80
2023-06-15T14:07:30.850Z,1.98
2023-06-15T14:10:35.202Z,2.20
2023-06-15T14:13:10.107Z,2.20
2023-06-15T14:15:47.639Z,2.50
2023-06-15T14:21:32.284Z,2.85
2023-06-15T14:24:04.457Z,2.30
2023-06-15T14:26:32.298Z,2.35
2023-06-15T14:29:00.190Z,3.05
2023-06-15T14:31:27.907Z,3.20
2023-06-15T14:33:55.830Z,3.78
2023-06-15T14:36:23.603Z,4.75
2023-06-15T14:38:51.510Z,5.15
2023-06-15T14:41:19.139Z,5.40
2023-06-15T14:43:47.054Z,6.05
2023-06-15T14:46:14.803Z,6.32
2023-06-15T14:48:44.086Z,5.43
2023-06-15T14:51:12.621Z,5.78
2023-06-15T14:53:40.594Z,4.97
2023-06-15T14:56:08.213Z,5.50
2023-06-15T14:58:36.201Z,4.80
2023-06-15T15:01:03.777Z,4.97
2023-06-15T15:03:31.828Z,5.38
2023-06-15T15:05:59.544Z,5.28
2023-06-15T15:08:27.470Z,5.38
2023-06-15T15:10:55.158Z,5.18
2023-06-15T15:13:22.974Z,5.78
2023-06-15T15:15:51.582Z,5.40
2023-06-15T15:18:19.576Z,5.97
2023-06-15T15:20:47.238Z,5.63
2023-06-15T15:23:15.099Z,5.25
2023-06-15T15:25:42.949Z,6.38
2023-06-15T15:28:10.890Z,5.68
2023-06-15T15:30:38.544Z,6.63
2023-06-15T15:33:06.609Z,6.65
2023-06-15T15:35:34.281Z,6.00
2023-06-15T15:38:02.607Z,6.28
2023-06-15T15:40:30.584Z,6.55
2023-06-15T15:42:59.234Z,6.30
2023-06-15T15:45:27.461Z,6.70
2023-06-15T15:47:55.800Z,5.90
2023-06-15T15:50:23.464Z,6.40
2023-06-15T15:52:51.426Z,5.80
2023-06-15T15:55:19.071Z,5.60
2023-06-15T15:57:47.086Z,5.78
2023-06-15T16:00:15.258Z,5.60
2023-06-15T16:02:43.322Z,5.70
2023-06-15T16:05:11.754Z,5.18
2023-06-15T16:07:41.263Z,5.65
2023-06-15T16:10:09.743Z,9.43
2023-06-15T16:12:38.589Z,5.32
2023-06-15T16:15:09.447Z,5.80
2023-06-15T16:17:37.964Z,5.70
2023-06-15T16:20:06.465Z,5.50
2023-06-15T16:22:35.266Z,5.35
2023-06-15T16:25:03.374Z,5.28
2023-06-15T16:27:33.258Z,5.00
2023-06-15T16:30:00.993Z,5.05
2023-06-15T16:32:29.089Z,5.22
2023-06-15T16:34:57.817Z,4.70
2023-06-15T16:37:25.889Z,4.75
2023-06-15T16:39:56.640Z,4.70
2023-06-15T16:42:30.250Z,5.05
2023-06-15T16:45:03.553Z,4.72
2023-06-15T16:47:32.248Z,4.68
2023-06-15T16:50:00.313Z,5.30
2023-06-15T16:52:29.117Z,4.82
2023-06-15T16:54:56.842Z,4.80
2023-06-15T16:57:24.904Z,5.30
2023-06-15T16:59:52.811Z,5.00
2023-06-15T17:02:21.199Z,5.05
2023-06-15T17:04:49.571Z,4.72
2023-06-15T17:07:18.504Z,4.72
2023-06-15T17:09:46.937Z,4.90
2023-06-15T17:12:15.194Z,5.32
2023-06-15T17:14:43.239Z,4.68
2023-06-15T17:17:11.358Z,5.00
2023-06-15T17:19:39.440Z,5.30
2023-06-15T17:22:07.718Z,5.35
2023-06-15T17:24:35.861Z,5.20
2023-06-15T17:27:04.557Z,5.30
2023-06-15T17:29:32.299Z,5.05
2023-06-15T17:32:00.146Z,5.07
2023-06-15T17:34:27.861Z,5.53
2023-06-15T17:36:55.834Z,5.32
2023-06-15T17:39:23.546Z,5.53
2023-06-15T17:41:51.490Z,6.57
2023-06-15T17:44:19.059Z,6.07
2023-06-15T17:46:47.024Z,5.63
2023-06-15T17:49:14.873Z,5.93
2023-06-15T17:51:42.841Z,5.95
2023-06-15T17:54:10.420Z,6.07
2023-06-15T17:56:38.633Z,6.28
2023-06-15T17:59:06.269Z,6.13
2023-06-15T18:01:34.923Z,6.20
2023-06-15T18:04:04.554Z,6.75
2023-06-15T18:06:32.651Z,5.95
2023-06-15T18:09:00.286Z,6.43
2023-06-15T18:11:29.271Z,6.55
2023-06-15T18:13:56.977Z,6.88
2023-06-15T18:16:25.054Z,6.50
2023-06-15T18:18:52.745Z,6.10
2023-06-15T18:21:20.562Z,6.88
2023-06-15T18:23:48.168Z,6.68
2023-06-15T18:26:16.093Z,6.75
2023-06-15T18:28:44.379Z,6.78
2023-06-15T18:31:12.293Z,6.93
2023-06-15T18:33:40.008Z,7.10
2023-06-15T18:36:07.926Z,7.13
2023-06-15T18:38:35.992Z,7.18
2023-06-15T18:41:03.896Z,6.80
2023-06-15T18:43:31.459Z,7.45
2023-06-15T18:45:59.415Z,7.70
2023-06-15T18:48:27.077Z,8.25
2023-06-15T18:50:55.109Z,8.10
2023-06-15T18:53:22.926Z,9.68
2023-06-15T18:55:51.087Z,8.25
2023-06-15T18:58:19.519Z,9.00
2023-06-15T19:00:47.604Z,9.23
2023-06-15T19:03:15.454Z,8.98
2023-06-15T19:05:43.803Z,9.15
2023-06-15T19:08:12.077Z,10.10
2023-06-15T19:10:39.916Z,9.70
2023-06-15T19:13:07.803Z,9.65
2023-06-15T19:15:36.138Z,9.75
2023-06-15T19:18:04.062Z,10.75
2023-06-15T19:20:31.923Z,9.55
2023-06-15T19:23:00.056Z,10.70
2023-06-15T19:25:27.929Z,10.10
2023-06-15T19:27:55.664Z,10.40
2023-06-15T19:30:23.554Z,10.90
2023-06-15T19:32:51.612Z,10.18
2023-06-15T19:35:20.358Z,10.75
2023-06-15T19:37:48.012Z,11.50
2023-06-15T19:40:16.190Z,11.07
2023-06-15T19:42:44.061Z,11.15
2023-06-15T19:45:12.274Z,11.18
2023-06-15T19:47:41.271Z,12.00
2023-06-15T19:50:09.693Z,12.88
2023-06-15T19:52:37.791Z,12.10
2023-06-15T19:55:05.903Z,12.80
2023-06-15T19:57:33.552Z,12.77
2023-06-15T20:00:04.478Z,13.32
2023-06-15T20:02:38.649Z,12.38
2023-06-15T20:05:07.313Z,14.18
2023-06-15T20:07:34.990Z,14.88
2023-06-15T20:10:03.250Z,13.95
2023-06-15T20:12:31.209Z,13.63
2023-06-15T20:14:59.016Z,15.88
2023-06-15T20:17:26.586Z,14.73
2023-06-15T20:19:55.229Z,15.07
2023-06-15T20:22:23.159Z,16.48
2023-06-15T20:24:51.106Z,15.68
2023-06-15T20:27:18.898Z,15.35
2023-06-15T20:29:46.954Z,14.65
2023-06-15T20:32:14.563Z,14.48
2023-06-15T20:34:42.429Z,14.90
2023-06-15T20:37:10.050Z,15.02
2023-06-15T20:39:45.944Z,14.68
2023-06-15T20:42:15.395Z,15.10
2023-06-15T20:44:43.551Z,15.73
2023-06-15T20:47:11.467Z,14.95
2023-06-15T20:49:42.270Z,16.15
2023-06-15T20:52:10.136Z,16.30
2023-06-15T20:54:37.941Z,16.25
2023-06-15T20:57:05.831Z,16.52
2023-06-15T20:59:33.684Z,16.42
2023-06-15T21:02:01.373Z,17.23
2023-06-15T21:04:29.318Z,17.48
2023-06-15T21:06:56.947Z,16.92
2023-06-15T21:09:24.759Z,16.70
2023-06-15T21:11:52.383Z,16.98
2023-06-15T21:14:20.813Z,16.98
2023-06-15T21:16:48.465Z,16.50
2023-06-15T21:19:16.360Z,17.23
2023-06-15T21:21:43.917Z,18.20
2023-06-15T21:24:11.763Z,16.95
2023-06-15T21:26:39.407Z,17.95
2023-06-15T21:29:07.396Z,16.85
2023-06-15T21:31:34.973Z,17.50
2023-06-15T21:34:02.850Z,18.48
2023-06-15T21:36:30.623Z,18.45
2023-06-15T21:38:58.480Z,18.13
2023-06-15T21:41:29.662Z,18.45
2023-06-15T21:43:58.471Z,19.05
2023-06-15T21:46:26.222Z,19.10
2023-06-15T21:48:54.069Z,19.40
2023-06-15T21:51:21.678Z,20.05
2023-06-15T21:53:49.543Z,20.02
2023-06-15T21:56:17.120Z,20.92
2023-06-15T21:58:45.265Z,19.50
2023-06-15T22:01:13.002Z,20.40
2023-06-15T22:03:41.475Z,22.27
2023-06-15T22:06:11.951Z,19.42
2023-06-15T22:08:39.964Z,19.13
2023-06-15T22:11:07.562Z,18.65
2023-06-15T22:13:35.669Z,18.35
2023-06-15T22:16:03.891Z,18.95
2023-06-15T22:18:34.532Z,18.48
2023-06-15T22:21:02.592Z,17.77
2023-06-15T22:23:30.438Z,18.08
2023-06-15T22:25:58.133Z,18.65
2023-06-15T22:28:26.524Z,19.50
2023-06-15T22:30:54.217Z,18.25
2023-06-15T22:33:24.533Z,18.25
2023-06-15T22:35:53.369Z,20.55
2023-06-15T22:38:21.400Z,19.52
2023-06-15T22:40:49.431Z,20.27
2023-06-15T22:43:17.478Z,20.42
2023-06-15T22:45:45.132Z,21.17
2023-06-15T22:48:12.967Z,22.25
2023-06-15T22:50:40.842Z,22.50
2023-06-15T22:53:09.896Z,22.27
2023-06-15T22:55:37.471Z,21.25
2023-06-15T22:58:05.476Z,21.42
2023-06-15T23:00:33.150Z,21.20
2023-06-15T23:03:01.617Z,22.33
2023-06-15T23:05:33.760Z,21.85
2023-06-15T23:08:01.928Z,21.80
2023-06-15T23:10:29.689Z,21.25
2023-06-15T23:12:59.471Z,20.95
2023-06-15T23:15:33.629Z,21.38
2023-06-15T23:18:03.223Z,21.13
2023-06-15T23:20:33.095Z,21.17
2023-06-15T23:23:01.314Z,21.65
2023-06-15T23:25:29.191Z,21.40
2023-06-15T23:28:00.811Z,21.85
2023-06-15T23:30:29.870Z,21.88
2023-06-15T23:32:57.768Z,21.77
2023-06-15T23:35:25.504Z,21.30
2023-06-15T23:37:53.384Z,22.42
2023-06-15T23:40:21.150Z,23.35
2023-06-15T23:42:49.156Z,22.55
2023-06-15T23:45:16.746Z,23.25
2023-06-15T23:47:44.667Z,23.13
2023-06-15T23:50:12.324Z,22.90
2023-06-15T23:52:40.524Z,23.33
2023-06-15T23:55:08.742Z,24.77
2023-06-15T23:57:37.019Z,24.30
